sensor_id;sensor_type;location;lat;lon;timestamp;P1;durP1;ratioP1;P2;durP2;ratioP2
58208;SDS011;44006;52.028;4.696;2023-08-06T00:01:36;11.35;;;8.10;;
58208;SDS011;44006;52.028;4.696;2023-08-06T00:04:02;12.27;;;9.07;;
58208;SDS011;44006;52.028;4.696;2023-08-06T00:06:27;12.55;;;7.82;;
58208;SDS011;44006;52.028;4.696;2023-08-06T00:08:52;11.60;;;8.67;;
58208;SDS011;44006;52.028;4.696;2023-08-06T00:11:17;9.70;;;8.23;;
58208;SDS011;44006;52.028;4.696;2023-08-06T00:13:43;12.10;;;8.65;;
58208;SDS011;44006;52.028;4.696;2023-08-06T00:16:09;11.73;;;8.48;;
58208;SDS011;44006;52.028;4.696;2023-08-06T00:18:34;12.43;;;8.90;;
58208;SDS011;44006;52.028;4.696;2023-08-06T00:20:59;11.07;;;8.60;;
58208;SDS011;44006;52.028;4.696;2023-08-06T00:23:24;11.50;;;8.50;;
58208;SDS011;44006;52.028;4.696;2023-08-06T00:25:50;11.00;;;7.90;;
58208;SDS011;44006;52.028;4.696;2023-08-06T00:28:16;10.80;;;8.77;;
58208;SDS011;44006;52.028;4.696;2023-08-06T00:30:41;13.20;;;9.47;;
58208;SDS011;44006;52.028;4.696;2023-08-06T00:33:06;11.67;;;8.90;;
58208;SDS011;44006;52.028;4.696;2023-08-06T00:35:31;14.27;;;9.23;;
58208;SDS011;44006;52.028;4.696;2023-08-06T00:37:56;13.57;;;9.73;;
58208;SDS011;44006;52.028;4.696;2023-08-06T00:40:22;12.80;;;9.70;;
58208;SDS011;44006;52.028;4.696;2023-08-06T00:42:47;11.82;;;9.13;;
58208;SDS011;44006;52.028;4.696;2023-08-06T00:45:13;14.07;;;9.73;;
58208;SDS011;44006;52.028;4.696;2023-08-06T00:47:38;13.38;;;9.05;;
58208;SDS011;44006;52.028;4.696;2023-08-06T00:50:05;11.90;;;9.10;;
58208;SDS011;44006;52.028;4.696;2023-08-06T00:52:30;10.80;;;9.10;;
58208;SDS011;44006;52.028;4.696;2023-08-06T00:54:56;12.38;;;9.07;;
58208;SDS011;44006;52.028;4.696;2023-08-06T00:57:21;14.40;;;9.90;;
58208;SDS011;44006;52.028;4.696;2023-08-06T00:59:49;12.15;;;9.13;;
58208;SDS011;44006;52.028;4.696;2023-08-06T01:02:14;13.10;;;10.43;;
58208;SDS011;44006;52.028;4.696;2023-08-06T01:04:39;15.27;;;9.77;;
58208;SDS011;44006;52.028;4.696;2023-08-06T01:12:18;11.73;;;9.52;;
58208;SDS011;44006;52.028;4.696;2023-08-06T01:17:13;12.88;;;9.40;;
58208;SDS011;44006;52.028;4.696;2023-08-06T01:19:39;14.07;;;10.55;;
58208;SDS011;44006;52.028;4.696;2023-08-06T01:22:04;13.93;;;10.10;;
58208;SDS011;44006;52.028;4.696;2023-08-06T01:24:29;13.30;;;10.32;;
58208;SDS011;44006;52.028;4.696;2023-08-06T01:26:57;15.32;;;10.77;;
58208;SDS011;44006;52.028;4.696;2023-08-06T01:29:42;13.90;;;10.00;;
58208;SDS011;44006;52.028;4.696;2023-08-06T01:32:09;15.15;;;11.02;;
58208;SDS011;44006;52.028;4.696;2023-08-06T01:34:35;14.30;;;10.65;;
58208;SDS011;44006;52.028;4.696;2023-08-06T01:37:02;13.95;;;10.90;;
58208;SDS011;44006;52.028;4.696;2023-08-06T01:39:28;12.80;;;10.50;;
58208;SDS011;44006;52.028;4.696;2023-08-06T01:41:53;15.20;;;10.10;;
58208;SDS011;44006;52.028;4.696;2023-08-06T01:44:18;11.33;;;9.43;;
58208;SDS011;44006;52.028;4.696;2023-08-06T01:46:43;12.82;;;9.45;;
58208;SDS011;44006;52.028;4.696;2023-08-06T01:49:08;12.48;;;9.75;;
58208;SDS011;44006;52.028;4.696;2023-08-06T01:51:34;12.27;;;9.07;;
58208;SDS011;44006;52.028;4.696;2023-08-06T01:53:59;11.30;;;9.23;;
58208;SDS011;44006;52.028;4.696;2023-08-06T01:56:24;10.60;;;8.70;;
58208;SDS011;44006;52.028;4.696;2023-08-06T01:58:49;13.07;;;8.73;;
58208;SDS011;44006;52.028;4.696;2023-08-06T02:01:14;12.13;;;9.20;;
58208;SDS011;44006;52.028;4.696;2023-08-06T02:03:40;10.77;;;9.32;;
58208;SDS011;44006;52.028;4.696;2023-08-06T02:06:05;12.20;;;9.13;;
58208;SDS011;44006;52.028;4.696;2023-08-06T02:08:30;12.80;;;9.45;;
58208;SDS011;44006;52.028;4.696;2023-08-06T02:10:55;13.43;;;8.68;;
58208;SDS011;44006;52.028;4.696;2023-08-06T02:13:21;12.27;;;8.93;;
58208;SDS011;44006;52.028;4.696;2023-08-06T02:15:46;12.32;;;9.45;;
58208;SDS011;44006;52.028;4.696;2023-08-06T02:18:14;11.30;;;9.02;;
58208;SDS011;44006;52.028;4.696;2023-08-06T02:20:42;13.10;;;9.60;;
58208;SDS011;44006;52.028;4.696;2023-08-06T02:23:07;13.48;;;9.98;;
58208;SDS011;44006;52.028;4.696;2023-08-06T02:25:32;11.40;;;9.17;;
58208;SDS011;44006;52.028;4.696;2023-08-06T02:27:58;12.67;;;10.17;;
58208;SDS011;44006;52.028;4.696;2023-08-06T02:30:23;11.43;;;9.40;;
58208;SDS011;44006;52.028;4.696;2023-08-06T02:32:48;12.73;;;9.67;;
58208;SDS011;44006;52.028;4.696;2023-08-06T02:35:13;11.27;;;9.70;;
58208;SDS011;44006;52.028;4.696;2023-08-06T02:37:38;13.23;;;9.90;;
58208;SDS011;44006;52.028;4.696;2023-08-06T02:40:04;13.07;;;10.23;;
58208;SDS011;44006;52.028;4.696;2023-08-06T02:42:29;13.30;;;9.88;;
58208;SDS011;44006;52.028;4.696;2023-08-06T02:44:54;12.43;;;9.87;;
58208;SDS011;44006;52.028;4.696;2023-08-06T02:47:20;14.65;;;9.85;;
58208;SDS011;44006;52.028;4.696;2023-08-06T02:49:45;12.82;;;10.18;;
58208;SDS011;44006;52.028;4.696;2023-08-06T02:52:10;12.88;;;11.13;;
58208;SDS011;44006;52.028;4.696;2023-08-06T02:54:36;13.40;;;10.88;;
58208;SDS011;44006;52.028;4.696;2023-08-06T02:57:01;13.50;;;10.43;;
58208;SDS011;44006;52.028;4.696;2023-08-06T02:59:26;14.03;;;11.47;;
58208;SDS011;44006;52.028;4.696;2023-08-06T03:01:51;13.83;;;10.83;;
58208;SDS011;44006;52.028;4.696;2023-08-06T03:04:16;14.55;;;10.73;;
58208;SDS011;44006;52.028;4.696;2023-08-06T03:06:43;15.20;;;11.30;;
58208;SDS011;44006;52.028;4.696;2023-08-06T03:09:08;14.37;;;11.17;;
58208;SDS011;44006;52.028;4.696;2023-08-06T03:11:33;14.10;;;11.83;;
58208;SDS011;44006;52.028;4.696;2023-08-06T03:13:58;15.27;;;12.33;;
58208;SDS011;44006;52.028;4.696;2023-08-06T03:16:23;15.10;;;12.13;;
58208;SDS011;44006;52.028;4.696;2023-08-06T03:18:49;14.53;;;11.07;;
58208;SDS011;44006;52.028;4.696;2023-08-06T03:21:14;13.67;;;11.33;;
58208;SDS011;44006;52.028;4.696;2023-08-06T03:23:39;14.80;;;11.83;;
58208;SDS011;44006;52.028;4.696;2023-08-06T03:26:04;14.87;;;11.97;;
58208;SDS011;44006;52.028;4.696;2023-08-06T03:28:29;14.80;;;11.13;;
58208;SDS011;44006;52.028;4.696;2023-08-06T03:30:58;18.10;;;13.00;;
58208;SDS011;44006;52.028;4.696;2023-08-06T03:33:24;15.32;;;12.07;;
58208;SDS011;44006;52.028;4.696;2023-08-06T03:35:49;13.73;;;11.53;;
58208;SDS011;44006;52.028;4.696;2023-08-06T03:38:14;17.10;;;12.70;;
58208;SDS011;44006;52.028;4.696;2023-08-06T03:40:39;20.70;;;13.53;;
58208;SDS011;44006;52.028;4.696;2023-08-06T03:43:04;16.97;;;12.10;;
58208;SDS011;44006;52.028;4.696;2023-08-06T03:45:30;19.23;;;12.70;;
58208;SDS011;44006;52.028;4.696;2023-08-06T03:47:55;15.90;;;12.25;;
58208;SDS011;44006;52.028;4.696;2023-08-06T03:50:20;14.47;;;11.73;;
58208;SDS011;44006;52.028;4.696;2023-08-06T03:52:45;17.17;;;13.13;;
58208;SDS011;44006;52.028;4.696;2023-08-06T03:55:10;18.43;;;12.47;;
58208;SDS011;44006;52.028;4.696;2023-08-06T03:57:35;15.77;;;12.70;;
58208;SDS011;44006;52.028;4.696;2023-08-06T04:00:01;16.07;;;13.53;;
58208;SDS011;44006;52.028;4.696;2023-08-06T04:02:27;18.92;;;14.30;;
58208;SDS011;44006;52.028;4.696;2023-08-06T04:04:53;20.83;;;14.50;;
58208;SDS011;44006;52.028;4.696;2023-08-06T04:07:18;11.75;;;9.30;;
58208;SDS011;44006;52.028;4.696;2023-08-06T04:12:18;8.50;;;6.18;;
58208;SDS011;44006;52.028;4.696;2023-08-06T04:14:43;10.33;;;7.07;;
58208;SDS011;44006;52.028;4.696;2023-08-06T04:17:08;9.63;;;7.40;;
58208;SDS011;44006;52.028;4.696;2023-08-06T04:19:33;11.00;;;7.60;;
58208;SDS011;44006;52.028;4.696;2023-08-06T04:21:59;10.53;;;7.00;;
58208;SDS011;44006;52.028;4.696;2023-08-06T04:24:24;10.70;;;7.47;;
58208;SDS011;44006;52.028;4.696;2023-08-06T04:26:49;10.63;;;7.03;;
58208;SDS011;44006;52.028;4.696;2023-08-06T04:29:14;12.07;;;6.40;;
58208;SDS011;44006;52.028;4.696;2023-08-06T04:31:39;8.50;;;6.27;;
58208;SDS011;44006;52.028;4.696;2023-08-06T04:34:05;9.75;;;6.18;;
58208;SDS011;44006;52.028;4.696;2023-08-06T04:36:30;11.57;;;7.20;;
58208;SDS011;44006;52.028;4.696;2023-08-06T04:38:55;10.63;;;6.37;;
58208;SDS011;44006;52.028;4.696;2023-08-06T04:41:20;8.88;;;5.80;;
58208;SDS011;44006;52.028;4.696;2023-08-06T04:43:45;7.00;;;5.03;;
58208;SDS011;44006;52.028;4.696;2023-08-06T04:46:11;9.50;;;5.00;;
58208;SDS011;44006;52.028;4.696;2023-08-06T04:48:36;8.37;;;4.47;;
58208;SDS011;44006;52.028;4.696;2023-08-06T04:51:01;7.23;;;4.17;;
58208;SDS011;44006;52.028;4.696;2023-08-06T04:53:26;6.93;;;4.25;;
58208;SDS011;44006;52.028;4.696;2023-08-06T04:55:51;9.27;;;3.90;;
58208;SDS011;44006;52.028;4.696;2023-08-06T04:58:17;7.22;;;3.90;;
58208;SDS011;44006;52.028;4.696;2023-08-06T05:00:42;8.90;;;3.40;;
58208;SDS011;44006;52.028;4.696;2023-08-06T05:03:07;7.40;;;3.93;;
58208;SDS011;44006;52.028;4.696;2023-08-06T05:05:32;6.85;;;3.60;;
58208;SDS011;44006;52.028;4.696;2023-08-06T05:07:57;8.27;;;4.28;;
58208;SDS011;44006;52.028;4.696;2023-08-06T05:10:29;5.95;;;3.45;;
58208;SDS011;44006;52.028;4.696;2023-08-06T05:12:54;7.18;;;3.45;;
58208;SDS011;44006;52.028;4.696;2023-08-06T05:15:19;6.70;;;3.80;;
58208;SDS011;44006;52.028;4.696;2023-08-06T05:17:45;5.75;;;3.42;;
58208;SDS011;44006;52.028;4.696;2023-08-06T05:20:10;6.95;;;3.97;;
58208;SDS011;44006;52.028;4.696;2023-08-06T05:22:36;5.18;;;3.30;;
58208;SDS011;44006;52.028;4.696;2023-08-06T05:25:01;5.43;;;3.27;;
58208;SDS011;44006;52.028;4.696;2023-08-06T05:27:27;8.07;;;4.10;;
58208;SDS011;44006;52.028;4.696;2023-08-06T05:29:54;8.13;;;3.77;;
58208;SDS011;44006;52.028;4.696;2023-08-06T05:32:19;6.57;;;4.03;;
58208;SDS011;44006;52.028;4.696;2023-08-06T05:34:45;6.00;;;4.20;;
58208;SDS011;44006;52.028;4.696;2023-08-06T05:37:10;5.83;;;3.67;;
58208;SDS011;44006;52.028;4.696;2023-08-06T05:39:35;8.52;;;4.00;;
58208;SDS011;44006;52.028;4.696;2023-08-06T05:42:00;7.20;;;3.90;;
58208;SDS011;44006;52.028;4.696;2023-08-06T05:44:26;5.47;;;4.07;;
58208;SDS011;44006;52.028;4.696;2023-08-06T05:46:51;5.35;;;4.25;;
58208;SDS011;44006;52.028;4.696;2023-08-06T05:49:18;5.18;;;4.38;;
58208;SDS011;44006;52.028;4.696;2023-08-06T05:51:44;8.65;;;4.20;;
58208;SDS011;44006;52.028;4.696;2023-08-06T05:54:09;5.70;;;4.10;;
58208;SDS011;44006;52.028;4.696;2023-08-06T05:56:35;6.65;;;4.22;;
58208;SDS011;44006;52.028;4.696;2023-08-06T05:59:00;7.95;;;4.85;;
58208;SDS011;44006;52.028;4.696;2023-08-06T06:01:25;6.33;;;3.60;;
58208;SDS011;44006;52.028;4.696;2023-08-06T06:03:50;9.17;;;4.33;;
58208;SDS011;44006;52.028;4.696;2023-08-06T06:06:16;7.20;;;4.18;;
58208;SDS011;44006;52.028;4.696;2023-08-06T06:08:42;5.90;;;3.65;;
58208;SDS011;44006;52.028;4.696;2023-08-06T06:11:07;7.35;;;4.40;;
58208;SDS011;44006;52.028;4.696;2023-08-06T06:13:32;7.70;;;4.05;;
58208;SDS011;44006;52.028;4.696;2023-08-06T06:15:58;6.33;;;4.60;;
58208;SDS011;44006;52.028;4.696;2023-08-06T06:18:23;6.45;;;4.20;;
58208;SDS011;44006;52.028;4.696;2023-08-06T06:20:48;8.23;;;4.33;;
58208;SDS011;44006;52.028;4.696;2023-08-06T06:23:13;6.67;;;4.63;;
58208;SDS011;44006;52.028;4.696;2023-08-06T06:25:49;6.20;;;3.95;;
58208;SDS011;44006;52.028;4.696;2023-08-06T06:28:14;9.00;;;4.70;;
58208;SDS011;44006;52.028;4.696;2023-08-06T06:30:40;8.88;;;4.80;;
58208;SDS011;44006;52.028;4.696;2023-08-06T06:33:06;8.73;;;4.70;;
58208;SDS011;44006;52.028;4.696;2023-08-06T06:35:31;7.35;;;4.82;;
58208;SDS011;44006;52.028;4.696;2023-08-06T06:37:56;8.98;;;4.95;;
58208;SDS011;44006;52.028;4.696;2023-08-06T06:40:23;9.57;;;5.28;;
58208;SDS011;44006;52.028;4.696;2023-08-06T06:42:48;9.27;;;5.45;;
58208;SDS011;44006;52.028;4.696;2023-08-06T06:45:14;9.60;;;5.50;;
58208;SDS011;44006;52.028;4.696;2023-08-06T06:47:39;9.23;;;5.30;;
58208;SDS011;44006;52.028;4.696;2023-08-06T06:50:04;9.33;;;4.60;;
58208;SDS011;44006;52.028;4.696;2023-08-06T06:52:30;8.63;;;4.78;;
58208;SDS011;44006;52.028;4.696;2023-08-06T06:54:55;8.03;;;4.33;;
58208;SDS011;44006;52.028;4.696;2023-08-06T06:57:20;8.43;;;4.13;;
58208;SDS011;44006;52.028;4.696;2023-08-06T06:59:45;9.85;;;3.75;;
58208;SDS011;44006;52.028;4.696;2023-08-06T07:02:11;10.15;;;3.72;;
58208;SDS011;44006;52.028;4.696;2023-08-06T07:04:39;7.70;;;3.60;;
58208;SDS011;44006;52.028;4.696;2023-08-06T07:07:04;6.38;;;3.35;;
58208;SDS011;44006;52.028;4.696;2023-08-06T07:09:29;6.97;;;2.85;;
58208;SDS011;44006;52.028;4.696;2023-08-06T07:11:54;6.23;;;3.00;;
58208;SDS011;44006;52.028;4.696;2023-08-06T07:14:20;4.87;;;2.60;;
58208;SDS011;44006;52.028;4.696;2023-08-06T07:16:45;7.33;;;2.50;;
58208;SDS011;44006;52.028;4.696;2023-08-06T07:19:10;6.78;;;2.42;;
58208;SDS011;44006;52.028;4.696;2023-08-06T07:21:35;6.47;;;2.17;;
58208;SDS011;44006;52.028;4.696;2023-08-06T07:24:01;5.23;;;1.93;;
58208;SDS011;44006;52.028;4.696;2023-08-06T07:26:26;6.55;;;2.33;;
58208;SDS011;44006;52.028;4.696;2023-08-06T07:28:51;8.32;;;2.60;;
58208;SDS011;44006;52.028;4.696;2023-08-06T07:31:16;4.75;;;1.88;;
58208;SDS011;44006;52.028;4.696;2023-08-06T07:33:41;6.50;;;1.90;;
58208;SDS011;44006;52.028;4.696;2023-08-06T07:36:07;9.50;;;2.10;;
58208;SDS011;44006;52.028;4.696;2023-08-06T07:38:32;7.07;;;1.65;;
58208;SDS011;44006;52.028;4.696;2023-08-06T07:40:58;5.87;;;2.27;;
58208;SDS011;44006;52.028;4.696;2023-08-06T07:43:27;4.88;;;2.00;;
58208;SDS011;44006;52.028;4.696;2023-08-06T07:45:53;7.13;;;2.03;;
58208;SDS011;44006;52.028;4.696;2023-08-06T07:48:18;4.32;;;1.75;;
58208;SDS011;44006;52.028;4.696;2023-08-06T07:50:43;9.10;;;2.07;;
58208;SDS011;44006;52.028;4.696;2023-08-06T07:53:15;5.55;;;2.00;;
58208;SDS011;44006;52.028;4.696;2023-08-06T07:55:40;5.50;;;2.10;;
58208;SDS011;44006;52.028;4.696;2023-08-06T07:58:05;7.20;;;2.10;;
58208;SDS011;44006;52.028;4.696;2023-08-06T08:00:30;5.37;;;2.00;;
58208;SDS011;44006;52.028;4.696;2023-08-06T08:02:55;7.60;;;2.20;;
58208;SDS011;44006;52.028;4.696;2023-08-06T08:05:21;6.33;;;2.43;;
58208;SDS011;44006;52.028;4.696;2023-08-06T08:07:46;6.90;;;2.00;;
58208;SDS011;44006;52.028;4.696;2023-08-06T08:10:11;5.30;;;1.80;;
58208;SDS011;44006;52.028;4.696;2023-08-06T08:12:36;4.72;;;2.00;;
58208;SDS011;44006;52.028;4.696;2023-08-06T08:15:02;8.70;;;2.38;;
58208;SDS011;44006;52.028;4.696;2023-08-06T08:17:28;6.75;;;2.10;;
58208;SDS011;44006;52.028;4.696;2023-08-06T08:19:53;6.97;;;2.15;;
58208;SDS011;44006;52.028;4.696;2023-08-06T08:22:18;4.43;;;2.15;;
58208;SDS011;44006;52.028;4.696;2023-08-06T08:24:44;5.93;;;2.13;;
58208;SDS011;44006;52.028;4.696;2023-08-06T08:27:09;7.43;;;2.40;;
58208;SDS011;44006;52.028;4.696;2023-08-06T08:29:34;7.13;;;2.60;;
58208;SDS011;44006;52.028;4.696;2023-08-06T08:31:59;5.38;;;2.13;;
58208;SDS011;44006;52.028;4.696;2023-08-06T08:34:25;5.47;;;2.30;;
58208;SDS011;44006;52.028;4.696;2023-08-06T08:36:50;4.80;;;2.22;;
58208;SDS011;44006;52.028;4.696;2023-08-06T08:39:16;6.13;;;2.00;;
58208;SDS011;44006;52.028;4.696;2023-08-06T08:41:41;3.90;;;1.70;;
58208;SDS011;44006;52.028;4.696;2023-08-06T08:44:07;8.50;;;2.22;;
58208;SDS011;44006;52.028;4.696;2023-08-06T08:46:33;5.25;;;2.30;;
58208;SDS011;44006;52.028;4.696;2023-08-06T08:49:00;5.88;;;2.70;;
58208;SDS011;44006;52.028;4.696;2023-08-06T08:51:27;4.88;;;2.00;;
58208;SDS011;44006;52.028;4.696;2023-08-06T08:53:52;6.47;;;2.10;;
58208;SDS011;44006;52.028;4.696;2023-08-06T08:56:20;9.25;;;2.40;;
58208;SDS011;44006;52.028;4.696;2023-08-06T08:58:45;7.40;;;2.33;;
58208;SDS011;44006;52.028;4.696;2023-08-06T09:01:11;6.35;;;2.67;;
58208;SDS011;44006;52.028;4.696;2023-08-06T09:03:37;8.80;;;2.78;;
58208;SDS011;44006;52.028;4.696;2023-08-06T09:06:02;5.75;;;2.45;;
58208;SDS011;44006;52.028;4.696;2023-08-06T09:08:30;5.90;;;2.17;;
58208;SDS011;44006;52.028;4.696;2023-08-06T09:10:59;4.30;;;2.15;;
58208;SDS011;44006;52.028;4.696;2023-08-06T09:13:26;4.90;;;1.98;;
58208;SDS011;44006;52.028;4.696;2023-08-06T09:15:52;8.02;;;2.50;;
58208;SDS011;44006;52.028;4.696;2023-08-06T09:18:24;8.20;;;2.35;;
58208;SDS011;44006;52.028;4.696;2023-08-06T09:20:50;6.68;;;2.60;;
58208;SDS011;44006;52.028;4.696;2023-08-06T09:23:17;5.95;;;2.53;;
58208;SDS011;44006;52.028;4.696;2023-08-06T09:25:42;8.25;;;2.75;;
58208;SDS011;44006;52.028;4.696;2023-08-06T09:28:08;5.45;;;3.10;;
58208;SDS011;44006;52.028;4.696;2023-08-06T09:30:35;8.68;;;3.00;;
58208;SDS011;44006;52.028;4.696;2023-08-06T09:33:00;6.72;;;2.95;;
58208;SDS011;44006;52.028;4.696;2023-08-06T09:35:29;6.88;;;2.60;;
58208;SDS011;44006;52.028;4.696;2023-08-06T09:38:06;6.65;;;2.63;;
58208;SDS011;44006;52.028;4.696;2023-08-06T09:40:35;6.70;;;2.55;;
58208;SDS011;44006;52.028;4.696;2023-08-06T09:43:03;6.82;;;2.60;;
58208;SDS011;44006;52.028;4.696;2023-08-06T09:45:35;6.30;;;2.40;;
58208;SDS011;44006;52.028;4.696;2023-08-06T09:48:04;5.82;;;2.35;;
58208;SDS011;44006;52.028;4.696;2023-08-06T09:50:31;6.80;;;2.42;;
58208;SDS011;44006;52.028;4.696;2023-08-06T09:53:01;7.30;;;2.63;;
58208;SDS011;44006;52.028;4.696;2023-08-06T09:55:26;6.35;;;2.35;;
58208;SDS011;44006;52.028;4.696;2023-08-06T09:57:52;5.13;;;2.67;;
58208;SDS011;44006;52.028;4.696;2023-08-06T10:00:17;4.50;;;2.45;;
58208;SDS011;44006;52.028;4.696;2023-08-06T10:02:43;7.90;;;2.83;;
58208;SDS011;44006;52.028;4.696;2023-08-06T10:05:08;7.10;;;2.53;;
58208;SDS011;44006;52.028;4.696;2023-08-06T10:07:35;4.75;;;2.35;;
58208;SDS011;44006;52.028;4.696;2023-08-06T10:10:00;6.72;;;2.63;;
58208;SDS011;44006;52.028;4.696;2023-08-06T10:12:26;4.10;;;2.03;;
58208;SDS011;44006;52.028;4.696;2023-08-06T10:14:54;4.40;;;1.90;;
58208;SDS011;44006;52.028;4.696;2023-08-06T10:17:22;7.10;;;2.50;;
58208;SDS011;44006;52.028;4.696;2023-08-06T10:19:48;6.18;;;2.35;;
58208;SDS011;44006;52.028;4.696;2023-08-06T10:22:14;5.13;;;1.90;;
58208;SDS011;44006;52.028;4.696;2023-08-06T10:24:53;4.55;;;2.10;;
58208;SDS011;44006;52.028;4.696;2023-08-06T10:29:47;6.68;;;1.83;;
58208;SDS011;44006;52.028;4.696;2023-08-06T10:32:12;6.00;;;1.88;;
58208;SDS011;44006;52.028;4.696;2023-08-06T10:34:59;7.05;;;1.90;;
58208;SDS011;44006;52.028;4.696;2023-08-06T10:37:23;2.95;;;1.67;;
58208;SDS011;44006;52.028;4.696;2023-08-06T10:39:51;7.15;;;2.00;;
58208;SDS011;44006;52.028;4.696;2023-08-06T10:42:27;3.92;;;1.75;;
58208;SDS011;44006;52.028;4.696;2023-08-06T10:47:39;3.35;;;1.60;;
58208;SDS011;44006;52.028;4.696;2023-08-06T10:50:06;4.22;;;2.00;;
58208;SDS011;44006;52.028;4.696;2023-08-06T10:52:31;3.72;;;1.63;;
58208;SDS011;44006;52.028;4.696;2023-08-06T10:54:57;2.80;;;1.53;;
58208;SDS011;44006;52.028;4.696;2023-08-06T10:57:22;4.07;;;1.40;;
58208;SDS011;44006;52.028;4.696;2023-08-06T10:59:47;5.30;;;1.60;;
58208;SDS011;44006;52.028;4.696;2023-08-06T11:02:12;3.55;;;1.67;;
58208;SDS011;44006;52.028;4.696;2023-08-06T11:04:38;3.08;;;1.13;;
58208;SDS011;44006;52.028;4.696;2023-08-06T11:07:03;3.58;;;1.33;;
58208;SDS011;44006;52.028;4.696;2023-08-06T11:09:28;2.67;;;1.10;;
58208;SDS011;44006;52.028;4.696;2023-08-06T11:11:53;3.20;;;1.38;;
58208;SDS011;44006;52.028;4.696;2023-08-06T11:14:18;4.97;;;1.43;;
58208;SDS011;44006;52.028;4.696;2023-08-06T11:16:44;5.33;;;1.50;;
58208;SDS011;44006;52.028;4.696;2023-08-06T11:19:09;5.20;;;1.27;;
58208;SDS011;44006;52.028;4.696;2023-08-06T11:21:34;2.60;;;1.53;;
58208;SDS011;44006;52.028;4.696;2023-08-06T11:24:00;5.40;;;1.30;;
58208;SDS011;44006;52.028;4.696;2023-08-06T11:26:25;2.90;;;1.50;;
58208;SDS011;44006;52.028;4.696;2023-08-06T11:28:52;3.90;;;1.90;;
58208;SDS011;44006;52.028;4.696;2023-08-06T11:31:18;5.10;;;1.70;;
58208;SDS011;44006;52.028;4.696;2023-08-06T11:33:43;4.43;;;1.52;;
58208;SDS011;44006;52.028;4.696;2023-08-06T11:36:08;4.23;;;1.60;;
58208;SDS011;44006;52.028;4.696;2023-08-06T11:38:34;3.77;;;1.60;;
58208;SDS011;44006;52.028;4.696;2023-08-06T11:40:59;2.90;;;1.27;;
58208;SDS011;44006;52.028;4.696;2023-08-06T11:43:25;2.97;;;1.03;;
58208;SDS011;44006;52.028;4.696;2023-08-06T11:45:50;2.90;;;1.20;;
58208;SDS011;44006;52.028;4.696;2023-08-06T11:48:17;2.10;;;1.10;;
58208;SDS011;44006;52.028;4.696;2023-08-06T11:50:43;3.17;;;1.10;;
58208;SDS011;44006;52.028;4.696;2023-08-06T11:53:11;4.45;;;1.30;;
58208;SDS011;44006;52.028;4.696;2023-08-06T11:55:37;5.10;;;1.98;;
58208;SDS011;44006;52.028;4.696;2023-08-06T11:58:02;3.47;;;1.15;;
58208;SDS011;44006;52.028;4.696;2023-08-06T12:00:28;2.67;;;1.35;;
58208;SDS011;44006;52.028;4.696;2023-08-06T12:02:53;2.55;;;1.20;;
58208;SDS011;44006;52.028;4.696;2023-08-06T12:05:20;3.67;;;1.10;;
58208;SDS011;44006;52.028;4.696;2023-08-06T12:07:55;1.70;;;1.05;;
58208;SDS011;44006;52.028;4.696;2023-08-06T12:10:21;4.18;;;1.20;;
58208;SDS011;44006;52.028;4.696;2023-08-06T12:12:47;3.63;;;1.00;;
58208;SDS011;44006;52.028;4.696;2023-08-06T12:15:12;3.75;;;1.00;;
58208;SDS011;44006;52.028;4.696;2023-08-06T12:17:37;4.15;;;0.95;;
58208;SDS011;44006;52.028;4.696;2023-08-06T12:20:03;1.98;;;0.80;;
58208;SDS011;44006;52.028;4.696;2023-08-06T12:22:29;3.83;;;0.82;;
58208;SDS011;44006;52.028;4.696;2023-08-06T12:24:57;4.38;;;1.10;;
58208;SDS011;44006;52.028;4.696;2023-08-06T12:27:22;3.27;;;0.90;;
58208;SDS011;44006;52.028;4.696;2023-08-06T12:29:48;1.97;;;1.07;;
58208;SDS011;44006;52.028;4.696;2023-08-06T12:32:13;2.90;;;0.95;;
58208;SDS011;44006;52.028;4.696;2023-08-06T12:34:39;3.38;;;1.00;;
58208;SDS011;44006;52.028;4.696;2023-08-06T12:37:05;3.58;;;1.10;;
58208;SDS011;44006;52.028;4.696;2023-08-06T12:39:31;4.18;;;1.20;;
58208;SDS011;44006;52.028;4.696;2023-08-06T12:41:57;2.80;;;0.98;;
58208;SDS011;44006;52.028;4.696;2023-08-06T12:44:24;4.38;;;0.80;;
58208;SDS011;44006;52.028;4.696;2023-08-06T12:46:50;1.75;;;0.75;;
58208;SDS011;44006;52.028;4.696;2023-08-06T12:49:15;3.67;;;0.85;;
58208;SDS011;44006;52.028;4.696;2023-08-06T12:51:40;2.07;;;0.70;;
58208;SDS011;44006;52.028;4.696;2023-08-06T12:54:05;3.17;;;0.90;;
58208;SDS011;44006;52.028;4.696;2023-08-06T12:56:30;2.50;;;0.80;;
58208;SDS011;44006;52.028;4.696;2023-08-06T12:58:56;2.65;;;0.80;;
58208;SDS011;44006;52.028;4.696;2023-08-06T13:01:21;4.73;;;1.17;;
58208;SDS011;44006;52.028;4.696;2023-08-06T13:03:46;2.50;;;0.70;;
58208;SDS011;44006;52.028;4.696;2023-08-06T13:06:11;2.17;;;0.73;;
58208;SDS011;44006;52.028;4.696;2023-08-06T13:08:37;2.78;;;0.60;;
58208;SDS011;44006;52.028;4.696;2023-08-06T13:11:02;2.67;;;0.68;;
58208;SDS011;44006;52.028;4.696;2023-08-06T13:13:28;2.08;;;0.85;;
58208;SDS011;44006;52.028;4.696;2023-08-06T13:15:53;1.13;;;0.63;;
58208;SDS011;44006;52.028;4.696;2023-08-06T13:18:18;1.47;;;0.80;;
58208;SDS011;44006;52.028;4.696;2023-08-06T13:20:43;3.93;;;1.10;;
58208;SDS011;44006;52.028;4.696;2023-08-06T13:23:09;5.75;;;0.80;;
58208;SDS011;44006;52.028;4.696;2023-08-06T13:25:34;4.28;;;1.15;;
58208;SDS011;44006;52.028;4.696;2023-08-06T13:28:02;3.72;;;1.10;;
58208;SDS011;44006;52.028;4.696;2023-08-06T13:30:27;5.38;;;1.00;;
58208;SDS011;44006;52.028;4.696;2023-08-06T13:32:52;3.07;;;1.23;;
58208;SDS011;44006;52.028;4.696;2023-08-06T13:35:18;3.05;;;0.90;;
58208;SDS011;44006;52.028;4.696;2023-08-06T13:37:43;3.25;;;1.20;;
58208;SDS011;44006;52.028;4.696;2023-08-06T13:40:09;2.40;;;1.15;;
58208;SDS011;44006;52.028;4.696;2023-08-06T13:42:35;4.18;;;1.15;;
58208;SDS011;44006;52.028;4.696;2023-08-06T13:45:00;2.83;;;1.02;;
58208;SDS011;44006;52.028;4.696;2023-08-06T13:47:28;3.80;;;0.90;;
58208;SDS011;44006;52.028;4.696;2023-08-06T13:49:54;4.97;;;1.40;;
58208;SDS011;44006;52.028;4.696;2023-08-06T13:52:19;2.75;;;1.10;;
58208;SDS011;44006;52.028;4.696;2023-08-06T13:54:44;4.43;;;1.27;;
58208;SDS011;44006;52.028;4.696;2023-08-06T13:57:09;4.30;;;1.15;;
58208;SDS011;44006;52.028;4.696;2023-08-06T13:59:35;5.22;;;1.13;;
58208;SDS011;44006;52.028;4.696;2023-08-06T14:02:00;5.80;;;1.50;;
58208;SDS011;44006;52.028;4.696;2023-08-06T14:04:25;8.48;;;1.77;;
58208;SDS011;44006;52.028;4.696;2023-08-06T14:06:51;7.80;;;1.30;;
58208;SDS011;44006;52.028;4.696;2023-08-06T14:09:16;7.53;;;1.23;;
58208;SDS011;44006;52.028;4.696;2023-08-06T14:11:43;6.15;;;1.20;;
58208;SDS011;44006;52.028;4.696;2023-08-06T14:14:08;6.93;;;1.10;;
58208;SDS011;44006;52.028;4.696;2023-08-06T14:16:34;5.13;;;1.00;;
58208;SDS011;44006;52.028;4.696;2023-08-06T14:18:59;5.53;;;1.15;;
58208;SDS011;44006;52.028;4.696;2023-08-06T14:21:24;6.57;;;1.20;;
58208;SDS011;44006;52.028;4.696;2023-08-06T14:23:49;7.72;;;1.23;;
58208;SDS011;44006;52.028;4.696;2023-08-06T14:26:15;21.37;;;2.33;;
58208;SDS011;44006;52.028;4.696;2023-08-06T14:28:40;6.40;;;1.25;;
58208;SDS011;44006;52.028;4.696;2023-08-06T14:31:05;10.10;;;1.50;;
58208;SDS011;44006;52.028;4.696;2023-08-06T14:33:30;8.50;;;1.40;;
58208;SDS011;44006;52.028;4.696;2023-08-06T14:35:55;11.93;;;1.23;;
58208;SDS011;44006;52.028;4.696;2023-08-06T14:38:21;10.03;;;1.60;;
58208;SDS011;44006;52.028;4.696;2023-08-06T14:40:46;6.97;;;1.17;;
58208;SDS011;44006;52.028;4.696;2023-08-06T14:43:11;8.63;;;1.85;;
58208;SDS011;44006;52.028;4.696;2023-08-06T14:45:38;9.50;;;1.63;;
58208;SDS011;44006;52.028;4.696;2023-08-06T14:48:03;6.13;;;1.33;;
58208;SDS011;44006;52.028;4.696;2023-08-06T14:50:28;7.78;;;1.40;;